Time;durP1;ratioP1;P1;durP2;ratioP2;P2;SDS_P1;SDS_P2;PMS_P1;PMS_P2;Temp;Humidity;BMP_temperature;BMP_pressure;BME280_temperature;BME280_humidity;BME280_pressure;Samples;Min_cycle;Max_cycle;Signal;HPM_P1;HPM_P2
2021/07/31 00:02:12;;;;;;;6.97;6.47;;;;;;;;;;4981694;28;25011;-53
2021/07/31 00:04:37;;;;;;;7.03;6.53;;;;;;;;;;4987673;28;24444;-53
2021/07/31 00:07:03;;;;;;;6.57;6.10;;;;;;;;;;4987121;28;24420;-53
2021/07/31 00:09:28;;;;;;;7.50;6.90;;;;;;;;;;4987015;28;24397;-53
2021/07/31 00:11:53;;;;;;;7.47;6.87;;;;;;;;;;4982259;28;24441;-53
2021/07/31 00:14:18;;;;;;;7.17;6.67;;;;;;;;;;4988060;28;24835;-52
2021/07/31 00:16:43;;;;;;;6.95;6.45;;;;;;;;;;4987794;28;24456;-52
2021/07/31 00:19:09;;;;;;;7.70;7.10;;;;;;;;;;4984264;28;24520;-53
2021/07/31 00:21:34;;;;;;;7.40;6.90;;;;;;;;;;4983354;28;24496;-53
2021/07/31 00:23:59;;;;;;;8.07;7.57;;;;;;;;;;4978741;28;24424;-53
2021/07/31 00:26:24;;;;;;;7.53;7.03;;;;;;;;;;4983089;28;25021;-53
2021/07/31 00:28:49;;;;;;;7.68;7.07;;;;;;;;;;4988107;28;24744;-53
2021/07/31 00:31:14;;;;;;;8.13;7.43;;;;;;;;;;4977384;28;24432;-53
2021/07/31 00:33:39;;;;;;;7.70;7.10;;;;;;;;;;4980815;28;24446;-54
2021/07/31 00:36:05;;;;;;;7.40;6.90;;;;;;;;;;4984940;28;24402;-53
2021/07/31 00:38:30;;;;;;;8.20;7.60;;;;;;;;;;4985905;28;24843;-53
2021/07/31 00:40:55;;;;;;;7.00;6.40;;;;;;;;;;4978443;28;24424;-53
2021/07/31 00:43:20;;;;;;;6.68;6.20;;;;;;;;;;4982644;28;24827;-53
2021/07/31 00:45:45;;;;;;;7.50;6.90;;;;;;;;;;4977839;28;24441;-53
2021/07/31 00:48:10;;;;;;;7.20;6.70;;;;;;;;;;4982261;28;24421;-53
2021/07/31 00:50:35;;;;;;;7.88;7.38;;;;;;;;;;4979807;28;24436;-53
2021/07/31 00:53:00;;;;;;;7.40;6.90;;;;;;;;;;4986535;28;24440;-52
2021/07/31 00:55:27;;;;;;;8.13;7.43;;;;;;;;;;4971369;28;24425;-53
2021/07/31 00:57:53;;;;;;;7.20;6.70;;;;;;;;;;4984855;28;24456;-53
2021/07/31 01:00:18;;;;;;;8.00;7.40;;;;;;;;;;4979063;28;24522;-53
2021/07/31 01:02:43;;;;;;;7.40;6.80;;;;;;;;;;4978452;28;25064;-52
2021/07/31 01:05:09;;;;;;;7.97;7.38;;;;;;;;;;4986211;28;24413;-53
2021/07/31 01:07:35;;;;;;;7.27;6.77;;;;;;;;;;4985827;28;24962;-53
2021/07/31 01:10:00;;;;;;;7.67;6.87;;;;;;;;;;4985310;28;25009;-53
2021/07/31 01:12:25;;;;;;;8.00;7.40;;;;;;;;;;4979300;28;24532;-53
2021/07/31 01:14:51;;;;;;;7.40;6.80;;;;;;;;;;4985994;28;24543;-52
2021/07/31 01:17:16;;;;;;;7.55;6.88;;;;;;;;;;4986103;28;25029;-52
2021/07/31 01:19:41;;;;;;;7.35;6.75;;;;;;;;;;4983309;28;24993;-52
2021/07/31 01:22:06;;;;;;;8.07;7.47;;;;;;;;;;4983967;28;24405;-52
2021/07/31 01:24:31;;;;;;;7.65;7.05;;;;;;;;;;4976841;28;24933;-52
2021/07/31 01:26:56;;;;;;;7.70;7.20;;;;;;;;;;4989400;28;24572;-52
2021/07/31 01:29:22;;;;;;;7.10;6.50;;;;;;;;;;4990006;28;24432;-52
2021/07/31 01:31:47;;;;;;;7.60;7.00;;;;;;;;;;4988511;28;24484;-52
2021/07/31 01:34:12;;;;;;;6.70;6.20;;;;;;;;;;4990757;28;24472;-52
2021/07/31 01:36:37;;;;;;;7.43;6.83;;;;;;;;;;4984446;28;25246;-52
2021/07/31 01:39:03;;;;;;;7.10;6.57;;;;;;;;;;4971587;28;24393;-52
2021/07/31 01:41:28;;;;;;;6.90;6.40;;;;;;;;;;4989748;28;24471;-53
2021/07/31 01:43:54;;;;;;;7.13;6.63;;;;;;;;;;4990478;28;24425;-52
2021/07/31 01:46:20;;;;;;;7.13;6.63;;;;;;;;;;4989914;28;24421;-52
2021/07/31 01:48:45;;;;;;;7.60;7.10;;;;;;;;;;4986654;28;24983;-52
2021/07/31 01:51:10;;;;;;;7.60;7.00;;;;;;;;;;4971799;28;24425;-52
2021/07/31 01:53:36;;;;;;;7.97;7.38;;;;;;;;;;4987758;28;24429;-52
2021/07/31 01:56:01;;;;;;;7.83;7.13;;;;;;;;;;4986062;28;24414;-53
2021/07/31 01:58:26;;;;;;;7.70;7.20;;;;;;;;;;4984022;28;24416;-52
2021/07/31 02:00:52;;;;;;;7.77;7.10;;;;;;;;;;4984651;28;24975;-52
2021/07/31 02:03:17;;;;;;;7.30;6.70;;;;;;;;;;4985117;28;24933;-52
2021/07/31 02:05:42;;;;;;;7.28;6.78;;;;;;;;;;4983878;28;24409;-52
2021/07/31 02:08:07;;;;;;;7.65;7.05;;;;;;;;;;4990472;28;24479;-52
2021/07/31 02:10:32;;;;;;;7.40;6.70;;;;;;;;;;4987212;28;25190;-52
2021/07/31 02:12:57;;;;;;;7.53;6.93;;;;;;;;;;4987160;28;24485;-52
2021/07/31 02:15:23;;;;;;;7.20;6.70;;;;;;;;;;4989894;28;24408;-52
2021/07/31 02:17:48;;;;;;;7.00;6.50;;;;;;;;;;4979386;28;24420;-52
2021/07/31 02:20:13;;;;;;;7.40;6.80;;;;;;;;;;4987351;28;24471;-53
2021/07/31 02:22:38;;;;;;;6.93;6.43;;;;;;;;;;4987360;28;24497;-53
2021/07/31 02:25:03;;;;;;;6.30;5.90;;;;;;;;;;4989144;28;24524;-53
2021/07/31 02:27:29;;;;;;;6.88;6.32;;;;;;;;;;4979839;28;24433;-53
2021/07/31 02:29:54;;;;;;;7.38;6.68;;;;;;;;;;4981445;28;24428;-53
2021/07/31 02:32:19;;;;;;;7.27;6.70;;;;;;;;;;4980573;28;25022;-52
2021/07/31 02:34:44;;;;;;;7.18;6.57;;;;;;;;;;4981021;28;25050;-52
2021/07/31 02:37:09;;;;;;;6.50;6.10;;;;;;;;;;4970733;28;24731;-52
2021/07/31 02:39:34;;;;;;;7.00;6.50;;;;;;;;;;4986225;28;24411;-53
2021/07/31 02:41:59;;;;;;;6.57;6.17;;;;;;;;;;4989129;28;24417;-52
2021/07/31 02:44:25;;;;;;;7.40;6.80;;;;;;;;;;4989712;28;24448;-53
2021/07/31 02:46:50;;;;;;;7.40;6.80;;;;;;;;;;4988018;28;24835;-53
2021/07/31 02:49:15;;;;;;;6.93;6.43;;;;;;;;;;4981473;28;24417;-52
2021/07/31 02:51:40;;;;;;;6.80;6.30;;;;;;;;;;4982560;28;24971;-50
2021/07/31 02:54:05;;;;;;;6.70;6.20;;;;;;;;;;4987571;28;24413;-52
2021/07/31 02:56:31;;;;;;;7.43;6.83;;;;;;;;;;4985157;28;24413;-53
2021/07/31 02:58:56;;;;;;;7.10;6.50;;;;;;;;;;4987645;28;24456;-52
2021/07/31 03:01:21;;;;;;;7.07;6.57;;;;;;;;;;4976260;28;25016;-53
2021/07/31 03:03:46;;;;;;;6.53;6.03;;;;;;;;;;4989810;28;24424;-52
2021/07/31 03:06:11;;;;;;;6.53;5.93;;;;;;;;;;4988256;28;24413;-52
2021/07/31 03:08:36;;;;;;;6.70;6.20;;;;;;;;;;4988918;28;24420;-52
2021/07/31 03:11:03;;;;;;;6.95;6.35;;;;;;;;;;4988104;28;24826;-53
2021/07/31 03:13:28;;;;;;;6.60;6.20;;;;;;;;;;4989038;28;24428;-52
2021/07/31 03:15:53;;;;;;;7.00;6.50;;;;;;;;;;4978631;28;24432;-52
2021/07/31 03:18:19;;;;;;;7.23;6.73;;;;;;;;;;4985276;28;24425;-52
2021/07/31 03:20:45;;;;;;;7.15;6.65;;;;;;;;;;4971788;28;24416;-52
2021/07/31 03:23:10;;;;;;;6.20;5.80;;;;;;;;;;4977248;28;24780;-52
2021/07/31 03:25:35;;;;;;;6.50;6.03;;;;;;;;;;4984383;28;24962;-52
2021/07/31 03:28:00;;;;;;;7.13;6.63;;;;;;;;;;4985662;28;24463;-52
2021/07/31 03:30:26;;;;;;;6.40;5.90;;;;;;;;;;4976724;28;24421;-53
2021/07/31 03:32:53;;;;;;;7.18;6.57;;;;;;;;;;4973827;28;24432;-52
2021/07/31 03:35:19;;;;;;;7.18;6.57;;;;;;;;;;4986730;28;24459;-52
2021/07/31 03:37:44;;;;;;;6.97;6.37;;;;;;;;;;4988249;28;24560;-53
2021/07/31 03:40:09;;;;;;;6.68;6.18;;;;;;;;;;4975849;28;24401;-53
2021/07/31 03:42:34;;;;;;;6.67;6.07;;;;;;;;;;4970448;28;24565;-52
2021/07/31 03:44:59;;;;;;;6.95;6.40;;;;;;;;;;4984575;28;24803;-52
2021/07/31 03:47:24;;;;;;;6.85;6.35;;;;;;;;;;4976492;28;24417;-52
2021/07/31 03:49:50;;;;;;;6.00;5.60;;;;;;;;;;4978153;28;24426;-52
2021/07/31 03:52:15;;;;;;;6.20;5.70;;;;;;;;;;4985578;28;24437;-52
2021/07/31 03:54:40;;;;;;;6.30;5.88;;;;;;;;;;4977908;28;24434;-53
2021/07/31 03:57:05;;;;;;;6.53;6.03;;;;;;;;;;4982314;28;24417;-53
2021/07/31 03:59:30;;;;;;;6.70;6.20;;;;;;;;;;4986580;28;24412;-52
2021/07/31 04:01:56;;;;;;;6.83;6.23;;;;;;;;;;4986798;28;24449;-53
2021/07/31 04:04:21;;;;;;;6.70;6.10;;;;;;;;;;4984447;28;24508;-53
2021/07/31 04:06:46;;;;;;;6.50;6.00;;;;;;;;;;4987291;28;24932;-53
2021/07/31 04:09:11;;;;;;;6.50;6.00;;;;;;;;;;4983380;28;24420;-52
2021/07/31 04:11:36;;;;;;;6.80;6.30;;;;;;;;;;4968812;28;24804;-53
2021/07/31 04:14:01;;;;;;;6.63;6.13;;;;;;;;;;4983531;28;24405;-53
2021/07/31 04:16:27;;;;;;;6.70;6.20;;;;;;;;;;4987329;28;24444;-53
2021/07/31 04:18:52;;;;;;;6.60;6.10;;;;;;;;;;4986942;28;24448;-53
2021/07/31 04:21:17;;;;;;;6.60;6.20;;;;;;;;;;4987747;28;24425;-53
2021/07/31 04:23:43;;;;;;;6.60;6.00;;;;;;;;;;4987965;28;24870;-52
2021/07/31 04:26:12;;;;;;;7.10;6.60;;;;;;;;;;4981240;28;24764;-53
2021/07/31 04:28:37;;;;;;;6.55;5.95;;;;;;;;;;4973136;28;24484;-52
2021/07/31 04:31:06;;;;;;;6.20;5.70;;;;;;;;;;4984733;28;24429;-52
2021/07/31 04:33:31;;;;;;;6.43;5.93;;;;;;;;;;4979233;28;24475;-53
2021/07/31 04:36:00;;;;;;;6.25;5.85;;;;;;;;;;4986670;28;24437;-52
2021/07/31 04:38:25;;;;;;;6.00;5.60;;;;;;;;;;4988133;28;24473;-52
2021/07/31 04:40:50;;;;;;;5.70;5.30;;;;;;;;;;4982901;28;24506;-52
2021/07/31 04:43:16;;;;;;;6.40;5.90;;;;;;;;;;4983040;28;24421;-52
2021/07/31 04:45:41;;;;;;;5.82;5.43;;;;;;;;;;4978139;28;24962;-52
2021/07/31 04:48:06;;;;;;;6.10;5.60;;;;;;;;;;4976900;28;24408;-52
2021/07/31 04:50:31;;;;;;;5.90;5.40;;;;;;;;;;4981088;28;24479;-53
2021/07/31 04:52:56;;;;;;;5.40;5.00;;;;;;;;;;4987627;28;24753;-53
2021/07/31 04:55:21;;;;;;;5.57;5.18;;;;;;;;;;4977728;28;24417;-53
2021/07/31 04:57:47;;;;;;;6.40;5.90;;;;;;;;;;4984073;28;24824;-53
2021/07/31 05:00:12;;;;;;;6.60;6.10;;;;;;;;;;4984766;28;24405;-52
2021/07/31 05:02:37;;;;;;;5.97;5.47;;;;;;;;;;4988634;28;24555;-52
2021/07/31 05:05:02;;;;;;;5.60;5.20;;;;;;;;;;4976107;28;24808;-52
2021/07/31 05:07:27;;;;;;;6.20;5.70;;;;;;;;;;4986742;28;24959;-52
2021/07/31 05:09:52;;;;;;;5.40;5.10;;;;;;;;;;4982219;28;24943;-53
2021/07/31 05:12:18;;;;;;;5.87;5.47;;;;;;;;;;4989508;28;24518;-53
2021/07/31 05:14:43;;;;;;;5.60;5.20;;;;;;;;;;4981048;28;24401;-53
2021/07/31 05:17:08;;;;;;;5.63;5.13;;;;;;;;;;4979415;28;24513;-53
2021/07/31 05:19:33;;;;;;;5.57;5.18;;;;;;;;;;4972918;28;24414;-53
2021/07/31 05:21:59;;;;;;;5.10;4.70;;;;;;;;;;4984240;28;24420;-53
2021/07/31 05:24:24;;;;;;;4.57;4.23;;;;;;;;;;4980630;28;24432;-53
2021/07/31 05:26:49;;;;;;;4.97;4.57;;;;;;;;;;4989849;28;24428;-53
2021/07/31 05:29:14;;;;;;;4.60;4.30;;;;;;;;;;4985370;28;24417;-53
2021/07/31 05:31:39;;;;;;;4.40;4.00;;;;;;;;;;4985985;28;24823;-53
2021/07/31 05:34:04;;;;;;;4.00;3.70;;;;;;;;;;4982367;28;24586;-53
2021/07/31 05:36:32;;;;;;;4.20;3.90;;;;;;;;;;4972513;28;24525;-53
2021/07/31 05:38:57;;;;;;;4.40;4.00;;;;;;;;;;4988660;28;24764;-53
2021/07/31 05:41:22;;;;;;;3.50;3.30;;;;;;;;;;4971318;28;24460;-52
2021/07/31 05:43:47;;;;;;;4.00;3.70;;;;;;;;;;4984196;28;24435;-53
2021/07/31 05:46:19;;;;;;;4.20;3.80;;;;;;;;;;4990001;28;24393;-53
2021/07/31 05:48:44;;;;;;;3.10;2.90;;;;;;;;;;4990239;28;24475;-53
2021/07/31 05:51:10;;;;;;;3.90;3.60;;;;;;;;;;4988353;28;24927;-53
2021/07/31 05:53:35;;;;;;;3.60;3.30;;;;;;;;;;4989416;28;24525;-53
2021/07/31 05:56:00;;;;;;;4.00;3.60;;;;;;;;;;4982819;28;24405;-53
2021/07/31 05:58:26;;;;;;;4.70;3.90;;;;;;;;;;4982997;28;24440;-53
2021/07/31 06:00:51;;;;;;;3.70;3.40;;;;;;;;;;4982876;28;25003;-53
2021/07/31 06:03:16;;;;;;;4.13;3.80;;;;;;;;;;4988919;28;24437;-54
2021/07/31 06:05:42;;;;;;;3.70;3.40;;;;;;;;;;4988566;28;24472;-54
2021/07/31 06:08:07;;;;;;;3.63;3.40;;;;;;;;;;4984300;28;24413;-54
2021/07/31 06:10:32;;;;;;;3.60;3.30;;;;;;;;;;4986457;28;24420;-54
2021/07/31 06:12:57;;;;;;;4.00;3.60;;;;;;;;;;4983645;28;24540;-54
2021/07/31 06:15:22;;;;;;;4.47;3.92;;;;;;;;;;4986946;28;24955;-54
2021/07/31 06:17:47;;;;;;;3.88;3.58;;;;;;;;;;4985557;28;24414;-54
2021/07/31 06:20:13;;;;;;;4.65;4.10;;;;;;;;;;4980004;28;24519;-54
2021/07/31 06:22:38;;;;;;;4.00;3.70;;;;;;;;;;4982552;28;25237;-54
2021/07/31 06:25:03;;;;;;;4.60;4.20;;;;;;;;;;4988618;28;24420;-54
2021/07/31 06:27:28;;;;;;;4.00;3.70;;;;;;;;;;4988408;28;24428;-54
2021/07/31 06:29:54;;;;;;;4.32;3.90;;;;;;;;;;4983867;28;25080;-54
2021/07/31 06:32:19;;;;;;;3.65;3.05;;;;;;;;;;4978392;28;24558;-54
2021/07/31 06:34:44;;;;;;;2.80;2.60;;;;;;;;;;4988930;28;24417;-54
2021/07/31 06:37:09;;;;;;;4.18;2.40;;;;;;;;;;4987609;28;24955;-53
2021/07/31 06:39:34;;;;;;;3.60;2.80;;;;;;;;;;4986439;28;24420;-53
2021/07/31 06:41:59;;;;;;;6.50;3.00;;;;;;;;;;4987519;28;24451;-53
2021/07/31 06:44:25;;;;;;;2.90;2.70;;;;;;;;;;4987618;28;25012;-54
2021/07/31 06:46:50;;;;;;;2.50;2.30;;;;;;;;;;4984700;28;24424;-53
2021/07/31 06:49:15;;;;;;;3.13;2.60;;;;;;;;;;4986837;28;24424;-54
2021/07/31 06:51:40;;;;;;;3.20;2.30;;;;;;;;;;4988259;28;24532;-54
2021/07/31 06:54:05;;;;;;;3.55;2.50;;;;;;;;;;4969846;28;24840;-53
2021/07/31 06:56:35;;;;;;;5.35;2.10;;;;;;;;;;4968769;28;24402;-53
2021/07/31 06:59:00;;;;;;;2.78;2.50;;;;;;;;;;4968013;28;24524;-54
2021/07/31 07:01:26;;;;;;;2.93;2.20;;;;;;;;;;4965913;28;24488;-55
2021/07/31 07:03:52;;;;;;;2.72;2.20;;;;;;;;;;4967096;28;24773;-54
2021/07/31 07:06:17;;;;;;;3.40;2.20;;;;;;;;;;4961095;28;24991;-54
2021/07/31 07:08:42;;;;;;;3.33;2.10;;;;;;;;;;4969078;28;24426;-54
2021/07/31 07:11:11;;;;;;;3.13;2.00;;;;;;;;;;4965176;28;24464;-54
2021/07/31 07:13:37;;;;;;;2.97;2.00;;;;;;;;;;4968480;28;24520;-54
2021/07/31 07:16:03;;;;;;;4.88;2.00;;;;;;;;;;4966785;28;24464;-54
2021/07/31 07:18:28;;;;;;;2.50;1.80;;;;;;;;;;4961608;28;24822;-55
2021/07/31 07:20:53;;;;;;;2.73;1.90;;;;;;;;;;4960224;28;24779;-54
2021/07/31 07:23:19;;;;;;;4.03;2.05;;;;;;;;;;4965705;28;24956;-53
2021/07/31 07:25:44;;;;;;;2.60;1.80;;;;;;;;;;4968325;28;24503;-53
2021/07/31 07:28:09;;;;;;;2.23;1.90;;;;;;;;;;4966802;28;24424;-53
2021/07/31 07:30:35;;;;;;;2.27;1.90;;;;;;;;;;4961598;28;24444;-54
2021/07/31 07:33:02;;;;;;;2.05;1.85;;;;;;;;;;4960540;28;25047;-53
2021/07/31 07:35:28;;;;;;;2.35;1.80;;;;;;;;;;4962281;28;25025;-53
2021/07/31 07:37:53;;;;;;;3.10;2.10;;;;;;;;;;4965080;28;24449;-54
2021/07/31 07:40:18;;;;;;;3.70;1.80;;;;;;;;;;4965646;28;24413;-53
2021/07/31 07:42:44;;;;;;;2.43;1.90;;;;;;;;;;4965230;28;24421;-53
2021/07/31 07:45:09;;;;;;;2.37;1.70;;;;;;;;;;4964931;28;24442;-52
2021/07/31 07:47:34;;;;;;;2.00;1.70;;;;;;;;;;4962733;28;24505;-54
2021/07/31 07:50:00;;;;;;;4.05;2.05;;;;;;;;;;4963460;28;25014;-53
2021/07/31 07:52:25;;;;;;;2.47;1.90;;;;;;;;;;4969803;28;24456;-53
2021/07/31 07:54:50;;;;;;;3.30;1.95;;;;;;;;;;4984189;28;24401;-53
2021/07/31 07:57:15;;;;;;;3.20;1.90;;;;;;;;;;4984154;28;24421;-53
2021/07/31 07:59:41;;;;;;;2.53;1.50;;;;;;;;;;4986089;28;24444;-53
2021/07/31 08:02:06;;;;;;;1.80;1.60;;;;;;;;;;4986637;28;24768;-53
2021/07/31 08:04:32;;;;;;;2.60;1.77;;;;;;;;;;4986892;28;24471;-53
2021/07/31 08:06:57;;;;;;;4.03;2.08;;;;;;;;;;4987295;28;24456;-53
2021/07/31 08:09:22;;;;;;;1.95;1.80;;;;;;;;;;4986164;28;24448;-53
2021/07/31 08:11:48;;;;;;;2.38;1.70;;;;;;;;;;4985861;28;24444;-53
2021/07/31 08:14:13;;;;;;;1.80;1.70;;;;;;;;;;4986533;28;24385;-53
2021/07/31 08:16:39;;;;;;;2.70;2.10;;;;;;;;;;4986791;28;24384;-53
2021/07/31 08:19:06;;;;;;;1.70;1.60;;;;;;;;;;4987304;28;24392;-53
2021/07/31 08:21:31;;;;;;;1.90;1.70;;;;;;;;;;4984301;28;24425;-53
2021/07/31 08:23:57;;;;;;;2.00;1.70;;;;;;;;;;4984193;28;24445;-53
2021/07/31 08:26:22;;;;;;;1.60;1.50;;;;;;;;;;4987462;28;24385;-53
2021/07/31 08:28:47;;;;;;;2.28;2.08;;;;;;;;;;4986731;28;24436;-53
2021/07/31 08:31:12;;;;;;;2.90;1.75;;;;;;;;;;4986228;28;24460;-53
2021/07/31 08:33:37;;;;;;;1.90;1.70;;;;;;;;;;4989690;28;24448;-53
2021/07/31 08:36:03;;;;;;;1.80;1.70;;;;;;;;;;4991402;28;24400;-53
2021/07/31 08:38:28;;;;;;;1.80;1.70;;;;;;;;;;4991215;28;24867;-53
2021/07/31 08:40:54;;;;;;;3.10;1.80;;;;;;;;;;4990393;28;24509;-54
2021/07/31 08:43:19;;;;;;;4.73;1.90;;;;;;;;;;4990481;28;24990;-53
2021/07/31 08:45:45;;;;;;;2.00;1.80;;;;;;;;;;4988498;28;24586;-53
2021/07/31 08:48:10;;;;;;;4.00;1.60;;;;;;;;;;4980238;28;24405;-53
2021/07/31 08:50:36;;;;;;;2.20;1.70;;;;;;;;;;4989953;28;24479;-53
2021/07/31 08:53:02;;;;;;;2.50;1.80;;;;;;;;;;4991035;28;24480;-53
2021/07/31 08:55:27;;;;;;;2.13;1.70;;;;;;;;;;4990916;28;24524;-53
2021/07/31 08:57:52;;;;;;;4.13;1.90;;;;;;;;;;4989981;28;24473;-53
2021/07/31 09:00:17;;;;;;;3.70;2.20;;;;;;;;;;4991058;28;24392;-53
2021/07/31 09:02:43;;;;;;;2.72;1.90;;;;;;;;;;4990259;28;24413;-53
2021/07/31 09:05:09;;;;;;;3.57;2.00;;;;;;;;;;4990877;28;24413;-53
2021/07/31 09:07:35;;;;;;;5.50;2.30;;;;;;;;;;4990464;28;24403;-54
2021/07/31 09:10:19;;;;;;;3.20;2.00;;;;;;;;;;4980701;28;24425;-54
2021/07/31 09:12:51;;;;;;;3.75;2.10;;;;;;;;;;4974182;28;25011;-54
2021/07/31 09:15:27;;;;;;;2.67;1.90;;;;;;;;;;4977254;28;24490;-54
2021/07/31 09:17:52;;;;;;;3.20;2.10;;;;;;;;;;4983712;28;25118;-53
2021/07/31 09:20:17;;;;;;;3.40;2.20;;;;;;;;;;4972239;28;25030;-53
2021/07/31 09:22:54;;;;;;;3.60;2.15;;;;;;;;;;4980396;28;25425;-53
2021/07/31 09:25:22;;;;;;;2.80;1.90;;;;;;;;;;4990981;28;24472;-54
2021/07/31 09:27:47;;;;;;;2.20;1.80;;;;;;;;;;4989778;28;24938;-54
2021/07/31 09:30:12;;;;;;;3.20;1.90;;;;;;;;;;4989771;28;24439;-54
2021/07/31 09:32:42;;;;;;;3.33;2.15;;;;;;;;;;4990322;28;24504;-54
2021/07/31 09:35:20;;;;;;;2.00;1.73;;;;;;;;;;4990481;28;24411;-54
2021/07/31 09:37:46;;;;;;;2.10;1.70;;;;;;;;;;4990065;28;24428;-54
2021/07/31 09:40:13;;;;;;;3.45;2.20;;;;;;;;;;4987094;28;24402;-54
2021/07/31 09:42:39;;;;;;;3.78;2.10;;;;;;;;;;4978231;28;24990;-54
2021/07/31 09:45:05;;;;;;;2.30;2.10;;;;;;;;;;4989502;28;24450;-54
2021/07/31 09:47:30;;;;;;;3.23;2.00;;;;;;;;;;5002012;28;25317;-55
2021/07/31 09:49:57;;;;;;;2.10;1.83;;;;;;;;;;4988940;28;24479;-54
2021/07/31 09:52:23;;;;;;;5.63;2.40;;;;;;;;;;4988660;28;24449;-54
2021/07/31 09:54:49;;;;;;;2.53;2.00;;;;;;;;;;4989141;28;24427;-54
2021/07/31 09:57:14;;;;;;;2.70;1.88;;;;;;;;;;4990201;28;24537;-54
2021/07/31 09:59:47;;;;;;;3.20;1.90;;;;;;;;;;4989631;28;24424;-54
2021/07/31 10:02:20;;;;;;;2.65;2.17;;;;;;;;;;4989079;28;24427;-54
2021/07/31 10:04:45;;;;;;;2.45;1.90;;;;;;;;;;4989252;28;24500;-54
2021/07/31 10:07:12;;;;;;;2.77;2.00;;;;;;;;;;4989930;28;24511;-54
2021/07/31 10:09:39;;;;;;;5.55;2.47;;;;;;;;;;4989537;28;24435;-54
2021/07/31 10:12:04;;;;;;;2.33;1.80;;;;;;;;;;4988328;28;24464;-54
2021/07/31 10:14:30;;;;;;;2.85;2.00;;;;;;;;;;4988436;28;24416;-54
2021/07/31 10:16:56;;;;;;;3.43;2.07;;;;;;;;;;4982674;28;24964;-54
2021/07/31 10:19:21;;;;;;;2.28;2.00;;;;;;;;;;4981593;28;24442;-54
2021/07/31 10:21:46;;;;;;;2.37;2.00;;;;;;;;;;4987084;28;24425;-54
2021/07/31 10:24:11;;;;;;;1.70;1.60;;;;;;;;;;4990038;28;24397;-54
2021/07/31 10:26:37;;;;;;;2.00;1.80;;;;;;;;;;4987614;28;24427;-54
2021/07/31 10:29:21;;;;;;;1.80;1.60;;;;;;;;;;4988194;28;24791;-54
2021/07/31 10:31:46;;;;;;;2.33;1.70;;;;;;;;;;4975924;28;24433;-54
2021/07/31 10:34:31;;;;;;;3.00;2.00;;;;;;;;;;4981013;28;24420;-54
2021/07/31 10:36:56;;;;;;;2.67;1.77;;;;;;;;;;4979827;28;24982;-55
2021/07/31 10:39:24;;;;;;;2.90;1.80;;;;;;;;;;4985496;28;24974;-54
2021/07/31 10:42:02;;;;;;;1.92;1.77;;;;;;;;;;4988625;28;24409;-54
2021/07/31 10:44:28;;;;;;;4.35;1.90;;;;;;;;;;4982269;28;24412;-54
2021/07/31 10:47:12;;;;;;;2.70;1.87;;;;;;;;;;4983201;28;24479;-54
2021/07/31 10:49:37;;;;;;;2.42;1.90;;;;;;;;;;4973119;28;25026;-53
2021/07/31 10:52:03;;;;;;;3.60;1.90;;;;;;;;;;4986700;28;24453;-53
2021/07/31 10:55:00;;;;;;;2.90;1.80;;;;;;;;;;4969385;28;24502;-53
2021/07/31 10:57:44;;;;;;;2.63;1.90;;;;;;;;;;4929304;28;24428;-53
2021/07/31 11:00:24;;;;;;;1.80;1.70;;;;;;;;;;4977001;28;24472;-53
2021/07/31 11:02:50;;;;;;;2.10;1.90;;;;;;;;;;4983304;28;24460;-54
2021/07/31 11:05:15;;;;;;;2.90;1.90;;;;;;;;;;4988553;28;24432;-54
2021/07/31 11:07:55;;;;;;;2.53;1.80;;;;;;;;;;4989185;28;24501;-54
2021/07/31 11:10:42;;;;;;;3.42;1.92;;;;;;;;;;4988273;28;24997;-54
2021/07/31 11:13:08;;;;;;;3.42;1.80;;;;;;;;;;4987759;28;25395;-52
2021/07/31 11:15:33;;;;;;;2.40;1.88;;;;;;;;;;4983985;28;24500;-53
2021/07/31 11:17:59;;;;;;;2.50;2.00;;;;;;;;;;4985313;28;24521;-53
2021/07/31 11:20:25;;;;;;;2.70;1.60;;;;;;;;;;4987906;28;24417;-55
2021/07/31 11:22:52;;;;;;;2.10;1.60;;;;;;;;;;4984959;28;24429;-54
2021/07/31 11:25:18;;;;;;;2.10;1.30;;;;;;;;;;4987350;28;24947;-53
2021/07/31 11:28:08;;;;;;;3.08;1.67;;;;;;;;;;4977497;28;24417;-54
2021/07/31 11:30:37;;;;;;;1.60;1.50;;;;;;;;;;4986695;28;24954;-53
2021/07/31 11:33:22;;;;;;;2.60;1.60;;;;;;;;;;4985437;28;25016;-54
2021/07/31 11:35:49;;;;;;;2.50;1.80;;;;;;;;;;4988157;28;24510;-54
2021/07/31 11:38:32;;;;;;;1.90;1.60;;;;;;;;;;4988633;28;24990;-54
2021/07/31 11:41:09;;;;;;;1.70;1.60;;;;;;;;;;4987711;28;24423;-54
2021/07/31 11:44:01;;;;;;;2.40;1.50;;;;;;;;;;4984714;28;24424;-54
2021/07/31 11:46:37;;;;;;;3.60;1.50;;;;;;;;;;4966069;28;25331;-54
2021/07/31 11:49:07;;;;;;;1.80;1.70;;;;;;;;;;4972326;28;24555;-55
2021/07/31 11:51:32;;;;;;;1.85;1.65;;;;;;;;;;4988534;28;24444;-54
2021/07/31 11:54:05;;;;;;;1.90;1.50;;;;;;;;;;4986847;28;24414;-55
2021/07/31 11:56:31;;;;;;;2.10;1.70;;;;;;;;;;4976100;28;24479;-55
2021/07/31 11:58:56;;;;;;;3.30;1.60;;;;;;;;;;4984772;28;24508;-55
2021/07/31 12:01:22;;;;;;;1.50;1.40;;;;;;;;;;4978346;28;24469;-55
2021/07/31 12:03:48;;;;;;;1.90;1.20;;;;;;;;;;4982162;28;24537;-54
2021/07/31 12:06:32;;;;;;;2.00;1.70;;;;;;;;;;4978643;28;25238;-55
2021/07/31 12:09:01;;;;;;;1.90;1.63;;;;;;;;;;4986847;28;24520;-54
2021/07/31 12:11:34;;;;;;;1.80;1.30;;;;;;;;;;4982823;28;24556;-55
2021/07/31 12:13:59;;;;;;;1.75;1.40;;;;;;;;;;4984186;28;24528;-53
2021/07/31 12:16:25;;;;;;;1.80;1.50;;;;;;;;;;4974310;28;24509;-54
2021/07/31 12:18:51;;;;;;;1.60;1.50;;;;;;;;;;4984861;28;25648;-53
2021/07/31 12:21:22;;;;;;;1.50;1.40;;;;;;;;;;4985971;28;24509;-53
2021/07/31 12:23:48;;;;;;;2.10;1.70;;;;;;;;;;4983639;28;24436;-53
2021/07/31 12:26:29;;;;;;;2.10;1.60;;;;;;;;;;4983970;28;25112;-53
2021/07/31 12:28:56;;;;;;;2.28;1.70;;;;;;;;;;4971930;28;24982;-53
2021/07/31 12:31:28;;;;;;;1.50;1.40;;;;;;;;;;4971396;28;25022;-53
2021/07/31 12:33:53;;;;;;;2.60;1.65;;;;;;;;;;4981770;28;24460;-53
2021/07/31 12:36:19;;;;;;;3.10;1.80;;;;;;;;;;4977850;28;24478;-53
2021/07/31 12:38:44;;;;;;;1.50;1.40;;;;;;;;;;4974003;28;24405;-53
2021/07/31 12:41:09;;;;;;;2.40;1.63;;;;;;;;;;4979780;28;24680;-54
2021/07/31 12:43:34;;;;;;;1.60;1.50;;;;;;;;;;4986856;28;24505;-54
2021/07/31 12:46:01;;;;;;;2.28;1.80;;;;;;;;;;4988075;28;24397;-54
2021/07/31 12:48:27;;;;;;;1.85;1.75;;;;;;;;;;4986951;28;24523;-53
2021/07/31 12:50:52;;;;;;;2.90;1.60;;;;;;;;;;4986809;28;25314;-54
2021/07/31 12:53:18;;;;;;;2.10;1.60;;;;;;;;;;4981977;28;24452;-54
2021/07/31 12:55:44;;;;;;;3.20;1.93;;;;;;;;;;4979262;28;24409;-53
2021/07/31 12:58:09;;;;;;;1.80;1.50;;;;;;;;;;4977350;28;24495;-53
2021/07/31 13:00:35;;;;;;;1.67;1.53;;;;;;;;;;4971392;28;24804;-54
2021/07/31 13:03:00;;;;;;;1.90;1.60;;;;;;;;;;4981966;28;24432;-53
2021/07/31 13:05:27;;;;;;;2.03;1.80;;;;;;;;;;4986068;28;24421;-54
2021/07/31 13:07:58;;;;;;;2.15;1.95;;;;;;;;;;4987940;28;24512;-54
2021/07/31 13:10:23;;;;;;;1.80;1.60;;;;;;;;;;4986299;28;24527;-53
2021/07/31 13:12:48;;;;;;;1.80;1.60;;;;;;;;;;4985106;28;24571;-54
2021/07/31 13:15:14;;;;;;;4.30;2.10;;;;;;;;;;4985998;28;24420;-53
2021/07/31 13:17:40;;;;;;;1.97;1.70;;;;;;;;;;4987970;28;24508;-54
2021/07/31 13:20:05;;;;;;;4.50;1.90;;;;;;;;;;4988562;28;25172;-54
2021/07/31 13:22:32;;;;;;;1.80;1.70;;;;;;;;;;4988770;28;24515;-54
2021/07/31 13:24:57;;;;;;;1.90;1.70;;;;;;;;;;4990759;28;24451;-54
2021/07/31 13:27:23;;;;;;;1.67;1.50;;;;;;;;;;4990492;28;24412;-54
2021/07/31 13:29:48;;;;;;;3.05;1.60;;;;;;;;;;4990576;28;24424;-54
2021/07/31 13:32:13;;;;;;;4.13;1.70;;;;;;;;;;4989748;28;24864;-54
2021/07/31 13:34:39;;;;;;;2.00;1.80;;;;;;;;;;4990560;28;24413;-54
2021/07/31 13:37:06;;;;;;;2.33;1.57;;;;;;;;;;4990337;28;24504;-54
2021/07/31 13:39:35;;;;;;;2.67;1.90;;;;;;;;;;4990365;28;24472;-54
2021/07/31 13:42:00;;;;;;;2.03;1.77;;;;;;;;;;4989960;28;24420;-54
2021/07/31 13:44:25;;;;;;;3.40;1.90;;;;;;;;;;4987885;28;24974;-54
2021/07/31 13:46:51;;;;;;;3.17;2.00;;;;;;;;;;4982947;28;24480;-53
2021/07/31 13:49:16;;;;;;;2.40;1.90;;;;;;;;;;4989801;28;24467;-54
2021/07/31 13:51:41;;;;;;;3.47;2.22;;;;;;;;;;4989449;28;24417;-52
2021/07/31 13:54:07;;;;;;;2.17;1.90;;;;;;;;;;4990051;28;25038;-53
2021/07/31 13:56:32;;;;;;;2.40;1.60;;;;;;;;;;4989875;28;24468;-54
2021/07/31 13:58:58;;;;;;;2.97;1.80;;;;;;;;;;4989639;28;24413;-54
2021/07/31 14:01:23;;;;;;;5.45;2.10;;;;;;;;;;4989818;28;24420;-54
2021/07/31 14:03:48;;;;;;;3.10;1.70;;;;;;;;;;4981320;28;24460;-53
2021/07/31 14:06:13;;;;;;;4.93;2.40;;;;;;;;;;4984541;28;24432;-53
2021/07/31 14:08:39;;;;;;;4.77;2.40;;;;;;;;;;4988632;28;24518;-53
2021/07/31 14:11:04;;;;;;;2.80;1.90;;;;;;;;;;4990026;28;24483;-54
2021/07/31 14:13:29;;;;;;;1.80;1.70;;;;;;;;;;4989807;28;24783;-54
2021/07/31 14:15:58;;;;;;;3.10;1.90;;;;;;;;;;4990219;28;24420;-54
2021/07/31 14:18:23;;;;;;;1.80;1.70;;;;;;;;;;4989002;28;24417;-54
2021/07/31 14:20:48;;;;;;;2.77;1.80;;;;;;;;;;4989963;28;24416;-54
2021/07/31 14:23:14;;;;;;;2.30;2.10;;;;;;;;;;4986250;28;24480;-54
2021/07/31 14:25:40;;;;;;;2.50;1.90;;;;;;;;;;4989460;28;25065;-54
2021/07/31 14:28:11;;;;;;;3.00;2.00;;;;;;;;;;4989102;28;25046;-54
2021/07/31 14:31:04;;;;;;;2.83;2.13;;;;;;;;;;4983292;28;24461;-54
2021/07/31 14:33:29;;;;;;;1.80;1.70;;;;;;;;;;4984349;28;25050;-53
2021/07/31 14:35:54;;;;;;;2.40;1.70;;;;;;;;;;4988922;28;24409;-54
2021/07/31 14:38:19;;;;;;;3.73;1.80;;;;;;;;;;4979914;28;24421;-54
2021/07/31 14:40:45;;;;;;;2.50;1.60;;;;;;;;;;4980802;28;24464;-54